Flight Track Log - Related Links

Times and Time Zones

All times are in EDT time to prevent confusion due to time zone crossing. See the ASQ273T flight status page for this flight to view local times or setup timezone preferences in your user account.

Time Position Orientation Groundspeed Altitude Reporting Facility
EDT Latitude Longitude Course Direction KTS MPH feet Rate Location/Type
Sun 11:30:54 PM 41.9667 -87.8833 153° Southeast 159 183 2,500  Level Chicago TRACON
Sun 11:31:54 PM 41.9167 -87.8667 166° South 193 222 4,300 1,835 Climbing Chicago TRACON
Sun 11:32:55 PM 41.8500 -87.8333 160° South 244 281 6,200 2,094 Climbing Chicago TRACON
Sun 11:34:23 PM 41.7578 -87.7750 155° Southeast 257 296 9,500 2,189 Climbing Chicago Center
Sun 11:35:23 PM 41.6878 -87.7336 156° South 269 310 11,600 1,537 Climbing Chicago Center
Sun 11:36:00 PM 41.5346 -87.6397 153° Southeast  Level FlightAware Approximate
Sun 11:36:24 PM 41.6100 -87.6986 161° South 297 342 12,600  Level Chicago Center
Sun 11:37:25 PM 41.5181 -87.6694 167° South 338 389 13,300 787 Climbing Chicago Center
Sun 11:38:26 PM 41.4211 -87.6386 167° South 354 407 14,200 1,033 Climbing Chicago Center
Sun 11:39:27 PM 41.3167 -87.6044 166° South 356 410 15,400 1,033 Climbing Chicago Center
Sun 11:40:28 PM 41.2183 -87.5731 166° South 359 413 16,300 934 Climbing Chicago Center
Sun 11:41:29 PM 41.1183 -87.5414 167° South 366 421 17,300 984 Climbing Chicago Center
Sun 11:42:30 PM 41.0147 -87.5103 167° South 369 425 18,300 984 Climbing Chicago Center
Sun 11:43:31 PM 40.9147 -87.4775 166° South 369 425 19,300 984 Climbing Chicago Center
Sun 11:44:32 PM 40.8131 -87.4469 167° South 370 426 20,300 934 Climbing Chicago Center
Sun 11:45:33 PM 40.7136 -87.4164 167° South 370 426 21,200 893 Climbing Chicago Center
Sun 11:46:33 PM 40.6128 -87.3856 167° South 367 422 22,100 942 Climbing Chicago Center
Sun 11:47:34 PM 40.5133 -87.3556 167° South 368 423 23,100 966 Climbing Chicago Center
Sun 11:49:27 PM 40.3231 -87.2750 162° South 382 440 24,900 931 Climbing Indianapolis Center
Sun 11:50:28 PM 40.2206 -87.2272 160° South 389 448 25,800 942 Climbing Indianapolis Center
Sun 11:51:28 PM 40.1181 -87.1747 159° South 392 451 26,800 595 Climbing Indianapolis Center
Sun 11:52:29 PM 40.0353 -87.0728 137° Southeast 408 470 27,000 99 Climbing Indianapolis Center
Sun 11:53:29 PM 39.9517 -86.9664 136° Southeast 417 480 27,000  Level Indianapolis Center
Sun 11:54:30 PM 39.8642 -86.8542 135° Southeast 434 499 27,000  Level Indianapolis Center
Sun 11:55:30 PM 39.7753 -86.7403 135° Southeast 446 513 27,000  Level Indianapolis Center
Sun 11:56:30 PM 39.6853 -86.6278 136° Southeast 449 517 27,000  Level Indianapolis Center
Sun 11:57:31 PM 39.5958 -86.5142 136° Southeast 454 522 27,000  Level Indianapolis Center
Sun 11:58:31 PM 39.4875 -86.3783 136° Southeast 456 525 27,000 -298 Level Indianapolis Center
Sun 11:59:32 PM 39.3958 -86.2636 136° Southeast 459 528 26,400 -744 Descending Indianapolis Center
Mon 12:00:32 AM 39.3022 -86.1469 136° Southeast 465 535 25,500 -893 Descending Indianapolis Center
Mon 12:01:33 AM 39.2114 -86.0325 136° Southeast 465 535 24,600 -744 Descending Indianapolis Center
Mon 12:02:33 AM 39.1200 -85.9206 136° Southeast 460 529 24,000 -300 Descending Indianapolis Center
Mon 12:03:33 AM 39.0303 -85.8083 136° Southeast 454 522 24,000  Level Indianapolis Center
Mon 12:04:34 AM 38.9389 -85.6978 137° Southeast 454 522 24,000 -595 Level Indianapolis Center
Mon 12:05:34 AM 38.8483 -85.5853 136° Southeast 454 522 22,800 -1,339 Descending Indianapolis Center
Mon 12:06:35 AM 38.7597 -85.4761 136° Southeast 451 519 21,300 -1,438 Descending Indianapolis Center
Mon 12:07:35 AM 38.6708 -85.3681 136° Southeast 446 513 19,900 -1,450 Descending Indianapolis Center
Mon 12:08:35 AM 38.5842 -85.2647 137° Southeast 431 496 18,400 -1,636 Descending Indianapolis Center
Mon 12:09:36 AM 38.5069 -85.1697 136° Southeast 413 475 16,600 -1,983 Descending Indianapolis Center
Mon 12:10:36 AM 38.4261 -85.0714 136° Southeast 406 467 14,400 -2,430 Descending Indianapolis Center
Mon 12:11:37 AM 38.3514 -84.9856 138° Southeast 370 426 11,700 -1,736 Descending Indianapolis Center
Mon 12:12:37 AM 38.2803 -84.9014 137° Southeast 355 409 10,900 -750 Descending Indianapolis Center
Mon 12:13:37 AM 38.1933 -84.8628 161° South 289 333 10,200 -1,686 Descending Indianapolis Center
Mon 12:14:38 AM 38.1311 -84.8442 167° South 243 280 7,500 -2,777 Descending Indianapolis Center
Mon 12:15:38 AM 38.0717 -84.8219 164° South 231 266 4,600 -2,350 Descending Indianapolis Center
Mon 12:16:38 AM 38.0367 -84.7586 125° Southeast 232 267 2,800 -1,800 Descending Indianapolis Center
Mon 12:18:00 AM 38.0333 -84.6000 142° Southeast  Level FlightAware Approximate
Mon 12:25:00 AM 38.0368 -84.6086 142° Southeast  Level Estimated
Mon 12:26:00 AM 38.0368 -84.6086 142° Southeast  Level Estimated
Mon 12:27:00 AM 38.0368 -84.6086 142° Southeast  Level Estimated

Login

Don't have an account? Register now (free) for customized features, flight alerts, and more!